Time;durP1;ratioP1;P1;durP2;ratioP2;P2;SDS_P1;SDS_P2;PMS_P1;PMS_P2;Temp;Humidity;BMP_temperature;BMP_pressure;BME280_temperature;BME280_humidity;BME280_pressure;Samples;Min_cycle;Max_cycle;Signal;HPM_P1;HPM_P2
2021/08/16 00:01:50;;;;;;;8.15;4.82;;;;;;;;;;5084146;28;20531;-85
2021/08/16 00:04:17;;;;;;;6.38;4.25;;;;;;;;;;5088247;28;20109;-84
2021/08/16 00:06:48;;;;;;;6.03;4.10;;;;;;;;;;5084005;28;20067;-84
2021/08/16 00:09:18;;;;;;;6.95;4.00;;;;;;;;;;5076547;28;20477;-83
2021/08/16 00:11:52;;;;;;;5.32;3.70;;;;;;;;;;5074844;28;20119;-85
2021/08/16 00:14:22;;;;;;;5.72;3.60;;;;;;;;;;5054804;28;20060;-84
2021/08/16 00:16:51;;;;;;;5.47;3.42;;;;;;;;;;5054060;28;20049;-83
2021/08/16 00:19:18;;;;;;;6.05;3.85;;;;;;;;;;5054754;28;20048;-84
2021/08/16 00:21:46;;;;;;;6.28;3.60;;;;;;;;;;5054668;28;20052;-84
2021/08/16 00:24:13;;;;;;;4.25;3.25;;;;;;;;;;5054640;28;20044;-85
2021/08/16 00:26:56;;;;;;;5.13;3.17;;;;;;;;;;5054517;28;20094;-84
2021/08/16 00:29:25;;;;;;;7.93;3.88;;;;;;;;;;5052599;28;20220;-84
2021/08/16 00:31:55;;;;;;;5.68;3.33;;;;;;;;;;5054594;28;20048;-84
2021/08/16 00:34:24;;;;;;;;;;;;;;;;;;5056013;28;20041;-85
2021/08/16 00:37:00;;;;;;;6.28;4.25;;;;;;;;;;5054517;28;20378;-85
2021/08/16 00:39:27;;;;;;;5.85;4.30;;;;;;;;;;5056627;28;20047;-84
2021/08/16 00:41:54;;;;;;;6.80;4.13;;;;;;;;;;5077027;28;20025;-83
2021/08/16 00:44:22;;;;;;;8.18;4.20;;;;;;;;;;5065096;28;20060;-85
2021/08/16 00:46:52;;;;;;;7.07;3.90;;;;;;;;;;5056250;28;20076;-85
2021/08/16 00:49:18;;;;;;;5.90;4.40;;;;;;;;;;5055118;28;20478;-85
2021/08/16 00:51:46;;;;;;;6.90;4.53;;;;;;;;;;5055102;28;20123;-85
2021/08/16 00:54:14;;;;;;;6.28;4.75;;;;;;;;;;5058230;28;20434;-85
2021/08/16 00:56:41;;;;;;;6.40;4.40;;;;;;;;;;5066212;28;20486;-85
2021/08/16 00:59:11;;;;;;;6.53;4.63;;;;;;;;;;5055322;28;20045;-85
2021/08/16 01:01:38;;;;;;;7.30;5.07;;;;;;;;;;5055022;28;20107;-85
2021/08/16 01:04:05;;;;;;;6.95;5.53;;;;;;;;;;5059493;28;20045;-85
2021/08/16 01:06:34;;;;;;;7.22;5.10;;;;;;;;;;5078740;28;20053;-85
2021/08/16 01:09:10;;;;;;;7.75;5.38;;;;;;;;;;5079104;28;20049;-83
2021/08/16 01:11:41;;;;;;;7.72;5.93;;;;;;;;;;5078375;28;20061;-84
2021/08/16 01:14:14;;;;;;;7.82;5.63;;;;;;;;;;5078914;28;20057;-83
2021/08/16 01:16:41;;;;;;;10.90;6.07;;;;;;;;;;5078636;28;20076;-84
2021/08/16 01:19:15;;;;;;;9.02;5.85;;;;;;;;;;5078877;28;20032;-84
2021/08/16 01:21:41;;;;;;;9.77;6.15;;;;;;;;;;5078188;28;20072;-83
2021/08/16 01:24:21;;;;;;;8.05;6.13;;;;;;;;;;5078066;28;20045;-83
2021/08/16 01:26:49;;;;;;;9.85;5.38;;;;;;;;;;5078031;28;20041;-84
2021/08/16 01:29:18;;;;;;;8.68;5.75;;;;;;;;;;5078170;28;20037;-83
2021/08/16 01:31:45;;;;;;;7.00;5.20;;;;;;;;;;5077884;28;20033;-83
2021/08/16 01:34:14;;;;;;;8.80;4.50;;;;;;;;;;5077951;28;20053;-83
2021/08/16 01:36:52;;;;;;;6.65;4.00;;;;;;;;;;5077766;28;20029;-83
2021/08/16 01:39:28;;;;;;;9.23;5.20;;;;;;;;;;4997644;28;20055;-82
2021/08/16 01:42:31;;;;;;;8.15;4.60;;;;;;;;;;5057267;28;20029;-83
2021/08/16 01:45:19;;;;;;;6.22;4.40;;;;;;;;;;5056067;28;20052;-83
2021/08/16 01:48:03;;;;;;;8.15;5.25;;;;;;;;;;5077362;28;20049;-81
2021/08/16 02:02:18;;;;;;;6.68;4.93;;;;;;;;;;5041334;28;20049;-84
2021/08/16 02:05:12;;;;;;;7.07;5.13;;;;;;;;;;5054502;28;20045;-83
2021/08/16 02:07:42;;;;;;;7.63;5.30;;;;;;;;;;5054458;28;20710;-83
2021/08/16 02:10:20;;;;;;;9.20;5.53;;;;;;;;;;5054512;28;20053;-83
2021/08/16 02:13:01;;;;;;;6.05;5.03;;;;;;;;;;5062446;28;20052;-84
2021/08/16 02:15:43;;;;;;;7.88;5.43;;;;;;;;;;5069724;28;20048;-83
2021/08/16 02:18:10;;;;;;;9.13;5.35;;;;;;;;;;5036838;28;20048;-83
2021/08/16 02:23:31;;;;;;;8.07;5.55;;;;;;;;;;5061945;28;20079;-83
2021/08/16 02:26:10;;;;;;;7.97;5.90;;;;;;;;;;5077100;28;20045;-83
2021/08/16 02:31:55;;;;;;;7.65;5.65;;;;;;;;;;5066933;28;20078;-83
2021/08/16 02:34:24;;;;;;;8.68;5.43;;;;;;;;;;5005490;28;20139;-82
2021/08/16 02:37:07;;;;;;;9.18;6.32;;;;;;;;;;5077055;28;20048;-83
2021/08/16 02:39:36;;;;;;;9.43;5.65;;;;;;;;;;5077095;28;20044;-83
2021/08/16 02:42:09;;;;;;;7.70;6.43;;;;;;;;;;5075150;28;20051;-82
2021/08/16 02:44:42;;;;;;;8.45;5.80;;;;;;;;;;5071556;28;20044;-81
2021/08/16 02:50:01;;;;;;;7.25;6.47;;;;;;;;;;5078437;28;20074;-82
2021/08/16 02:52:34;;;;;;;8.25;6.43;;;;;;;;;;5094131;28;20070;-82
2021/08/16 02:55:04;;;;;;;8.38;6.20;;;;;;;;;;5080183;28;20471;-83
2021/08/16 03:06:07;;;;;;;8.10;6.55;;;;;;;;;;5071174;28;20052;-83
2021/08/16 03:08:57;;;;;;;;;;;;;;;;;;;;;
2021/08/16 03:11:26;;;;;;;9.00;6.20;;;;;;;;;;5055119;28;20406;-84
2021/08/16 03:14:22;;;;;;;7.07;6.13;;;;;;;;;;5076115;28;20055;-82
2021/08/16 03:19:34;;;;;;;8.10;6.50;;;;;;;;;;5074280;28;20063;-83
2021/08/16 03:22:02;;;;;;;10.57;6.30;;;;;;;;;;5076388;28;20486;-83
2021/08/16 03:24:45;;;;;;;8.60;6.32;;;;;;;;;;5075841;28;20416;-83
2021/08/16 03:27:19;;;;;;;8.20;6.60;;;;;;;;;;5076496;28;20056;-83
2021/08/16 03:29:46;;;;;;;7.78;6.60;;;;;;;;;;5075785;28;20132;-84
2021/08/16 03:35:22;;;;;;;8.55;6.57;;;;;;;;;;5048841;28;20047;-83
2021/08/16 03:37:50;;;;;;;10.30;6.90;;;;;;;;;;5075725;28;20052;-84
2021/08/16 03:40:17;;;;;;;9.95;7.03;;;;;;;;;;5075191;28;20117;-84
2021/08/16 03:42:45;;;;;;;8.48;6.88;;;;;;;;;;5075937;28;20048;-83
2021/08/16 03:45:14;;;;;;;11.77;6.85;;;;;;;;;;5076188;28;20045;-83
2021/08/16 03:47:41;;;;;;;9.80;7.53;;;;;;;;;;5076443;28;20578;-84
2021/08/16 03:50:09;;;;;;;9.10;6.60;;;;;;;;;;5075451;28;20109;-83
2021/08/16 03:52:37;;;;;;;8.60;6.80;;;;;;;;;;5079696;28;20455;-83
2021/08/16 03:55:05;;;;;;;8.02;6.20;;;;;;;;;;5079783;28;20234;-84
2021/08/16 03:57:32;;;;;;;8.48;6.78;;;;;;;;;;5077816;28;20056;-83
2021/08/16 04:02:53;;;;;;;10.13;7.13;;;;;;;;;;5076762;28;20140;-86
2021/08/16 04:05:42;;;;;;;7.82;7.03;;;;;;;;;;5078955;28;20052;-85
2021/08/16 07:55:33;;;;;;;9.77;5.22;;;;;;;;;;5083137;28;20345;-80
2021/08/16 07:58:12;;;;;;;6.00;4.30;;;;;;;;;;5085858;28;20052;-85
2021/08/16 08:00:42;;;;;;;5.38;3.60;;;;;;;;;;5092673;28;20103;-85
2021/08/16 08:03:37;;;;;;;;;;;;;;;;;;5088191;28;20041;-88
2021/08/16 08:06:27;;;;;;;6.07;3.58;;;;;;;;;;5088200;28;19921;-87
2021/08/16 08:08:54;;;;;;;5.03;3.47;;;;;;;;;;5082124;28;20050;-81
2021/08/16 08:14:47;;;;;;;4.72;3.63;;;;;;;;;;5086640;28;20048;-91
2021/08/16 08:17:14;;;;;;;5.95;3.97;;;;;;;;;;5083742;28;20052;-83
2021/08/16 08:19:42;;;;;;;6.18;3.97;;;;;;;;;;5082844;28;20293;-83
2021/08/16 08:22:09;;;;;;;6.07;3.80;;;;;;;;;;5083685;28;20108;-80
2021/08/16 08:24:36;;;;;;;6.93;4.10;;;;;;;;;;5088111;28;20059;-81
2021/08/16 08:27:03;;;;;;;6.20;3.72;;;;;;;;;;5086638;28;20072;-82
2021/08/16 08:29:30;;;;;;;5.93;3.90;;;;;;;;;;5086270;28;20052;-83
2021/08/16 08:31:58;;;;;;;5.72;4.07;;;;;;;;;;5085877;28;20052;-82
2021/08/16 08:37:40;;;;;;;5.63;4.07;;;;;;;;;;5084343;28;20101;-87
2021/08/16 08:40:08;;;;;;;5.55;4.68;;;;;;;;;;5098257;28;20029;-79
2021/08/16 08:42:36;;;;;;;5.25;4.45;;;;;;;;;;5098215;28;20075;-80
2021/08/16 08:45:03;;;;;;;4.88;4.10;;;;;;;;;;5078489;28;20037;-81
2021/08/16 08:47:36;;;;;;;6.75;4.68;;;;;;;;;;5074448;28;20075;-81
2021/08/16 08:50:03;;;;;;;6.75;4.40;;;;;;;;;;5066250;28;20049;-82
2021/08/16 08:52:30;;;;;;;6.75;4.25;;;;;;;;;;5066292;28;20075;-81
2021/08/16 08:55:00;;;;;;;5.55;4.88;;;;;;;;;;5065154;28;20041;-81
2021/08/16 08:57:30;;;;;;;6.43;4.57;;;;;;;;;;5069681;28;20049;-80
2021/08/16 09:00:03;;;;;;;5.38;3.92;;;;;;;;;;5075710;28;20048;-81
2021/08/16 09:02:34;;;;;;;7.50;4.53;;;;;;;;;;5076204;28;20281;-81
2021/08/16 09:05:02;;;;;;;5.65;4.72;;;;;;;;;;5073621;28;20073;-80
2021/08/16 09:07:35;;;;;;;6.75;4.78;;;;;;;;;;5064031;28;20414;-89
2021/08/16 09:10:04;;;;;;;6.30;4.72;;;;;;;;;;5063903;28;20140;-82
2021/08/16 09:12:33;;;;;;;7.85;5.05;;;;;;;;;;5063760;28;20099;-84
2021/08/16 09:15:00;;;;;;;7.20;4.60;;;;;;;;;;5062744;28;20395;-81
2021/08/16 09:17:32;;;;;;;6.65;4.30;;;;;;;;;;5062149;28;20063;-80
2021/08/16 09:20:02;;;;;;;7.05;5.05;;;;;;;;;;5062129;28;20136;-80
2021/08/16 09:22:35;;;;;;;7.20;6.32;;;;;;;;;;5061418;28;20098;-81
2021/08/16 09:25:05;;;;;;;8.45;5.78;;;;;;;;;;5060808;28;20212;-81
2021/08/16 09:27:43;;;;;;;6.00;4.68;;;;;;;;;;5062234;28;20049;-85
2021/08/16 09:30:11;;;;;;;5.57;4.57;;;;;;;;;;5061044;28;20075;-83
2021/08/16 09:32:40;;;;;;;6.53;5.30;;;;;;;;;;5060520;28;20068;-82
2021/08/16 09:35:14;;;;;;;7.35;5.10;;;;;;;;;;5062126;28;20064;-82
2021/08/16 09:37:41;;;;;;;8.90;6.95;;;;;;;;;;5065898;28;20069;-81
2021/08/16 09:40:14;;;;;;;7.82;4.90;;;;;;;;;;5064965;28;20091;-82
2021/08/16 09:42:45;;;;;;;6.53;4.97;;;;;;;;;;5063926;28;20091;-80
2021/08/16 09:45:15;;;;;;;8.48;6.15;;;;;;;;;;5060920;28;20053;-82
2021/08/16 09:47:45;;;;;;;7.80;7.00;;;;;;;;;;5060999;28;20041;-82
2021/08/16 09:50:13;;;;;;;9.48;7.22;;;;;;;;;;5060490;28;20045;-82
2021/08/16 09:52:41;;;;;;;9.73;6.35;;;;;;;;;;5060534;28;20045;-81
2021/08/16 09:55:11;;;;;;;8.05;6.00;;;;;;;;;;5058896;28;20088;-81
2021/08/16 09:57:41;;;;;;;8.52;5.95;;;;;;;;;;5058678;28;20048;-82
2021/08/16 10:00:09;;;;;;;6.75;5.68;;;;;;;;;;5060711;28;20191;-82
2021/08/16 10:02:37;;;;;;;7.47;5.95;;;;;;;;;;5099921;22;20027;-82
2021/08/16 10:05:06;;;;;;;8.55;5.93;;;;;;;;;;5084991;28;20068;-83
2021/08/16 10:07:35;;;;;;;7.17;5.77;;;;;;;;;;5076913;28;20060;-83
2021/08/16 10:10:02;;;;;;;7.78;6.55;;;;;;;;;;5076903;28;20495;-83
2021/08/16 10:12:32;;;;;;;8.63;6.18;;;;;;;;;;5076847;28;20057;-83
2021/08/16 10:15:01;;;;;;;7.32;6.53;;;;;;;;;;5074761;28;20551;-82
2021/08/16 10:17:38;;;;;;;9.15;7.43;;;;;;;;;;5073991;28;20429;-82
2021/08/16 10:37:15;;;;;;;7.95;6.35;;;;;;;;;;5051157;28;20048;-84
2021/08/16 10:43:23;;;;;;;9.43;6.90;;;;;;;;;;5054246;28;20124;-84
2021/08/16 10:48:33;;;;;;;10.48;7.85;;;;;;;;;;5010645;28;20033;-86
2021/08/16 10:51:22;;;;;;;10.32;9.23;;;;;;;;;;5056544;28;20767;-83
2021/08/16 10:53:52;;;;;;;12.23;10.07;;;;;;;;;;5054783;28;20571;-84
2021/08/16 10:56:22;;;;;;;10.25;8.65;;;;;;;;;;5054031;28;20045;-83
2021/08/16 10:58:58;;;;;;;10.02;8.43;;;;;;;;;;5095476;28;20055;-82
2021/08/16 11:01:32;;;;;;;9.95;8.88;;;;;;;;;;5097072;28;20432;-82
2021/08/16 11:04:08;;;;;;;13.82;8.65;;;;;;;;;;5096960;28;20043;-83
2021/08/16 11:06:36;;;;;;;10.25;9.10;;;;;;;;;;5097579;28;20435;-83
2021/08/16 11:09:08;;;;;;;10.50;9.13;;;;;;;;;;5096986;28;20087;-83
2021/08/16 11:12:12;;;;;;;9.85;8.02;;;;;;;;;;5096460;28;20051;-91
2021/08/16 11:26:09;;;;;;;10.05;8.93;;;;;;;;;;4918144;29;20422;-81
2021/08/16 11:51:08;;;;;;;9.27;8.35;;;;;;;;;;4673841;22;20108;-83
2021/08/16 12:26:58;;;;;;;10.80;9.25;;;;;;;;;;981669;26;20353;-82
2021/08/16 12:43:09;;;;;;;8.93;7.72;;;;;;;;;;5052911;28;20108;-81
2021/08/16 12:45:35;;;;;;;8.15;7.28;;;;;;;;;;5055456;28;20045;-81
2021/08/16 12:48:04;;;;;;;9.52;8.43;;;;;;;;;;5039606;28;20114;-81
2021/08/16 12:50:36;;;;;;;10.30;8.07;;;;;;;;;;5037184;28;20049;-81
2021/08/16 12:53:04;;;;;;;11.55;9.48;;;;;;;;;;5036888;28;20049;-82
2021/08/16 12:55:30;;;;;;;9.60;7.13;;;;;;;;;;5036637;28;20348;-82
2021/08/16 12:57:57;;;;;;;9.15;7.63;;;;;;;;;;5036871;28;20046;-82
2021/08/16 13:00:26;;;;;;;9.80;7.97;;;;;;;;;;5036499;28;20107;-82
2021/08/16 13:02:53;;;;;;;9.13;8.23;;;;;;;;;;5053411;28;20056;-81
2021/08/16 13:05:19;;;;;;;9.80;8.25;;;;;;;;;;5056975;28;20091;-82
2021/08/16 13:07:47;;;;;;;8.95;8.05;;;;;;;;;;5057547;28;20049;-82
2021/08/16 13:10:13;;;;;;;8.57;6.63;;;;;;;;;;5056841;28;20135;-81
2021/08/16 13:12:42;;;;;;;8.40;7.03;;;;;;;;;;5049305;28;20046;-85
2021/08/16 13:15:10;;;;;;;8.98;7.53;;;;;;;;;;5035833;28;20049;-83
2021/08/16 13:17:41;;;;;;;9.40;7.32;;;;;;;;;;5038768;28;20119;-83
2021/08/16 13:22:45;;;;;;;9.55;8.57;;;;;;;;;;5035452;28;20503;-87
2021/08/16 13:25:12;;;;;;;10.43;8.98;;;;;;;;;;5035967;28;20099;-81
2021/08/16 13:28:06;;;;;;;9.80;8.55;;;;;;;;;;5039724;28;20749;-86
2021/08/16 13:30:37;;;;;;;8.70;7.80;;;;;;;;;;5038914;28;20049;-84
2021/08/16 13:33:06;;;;;;;10.40;7.67;;;;;;;;;;5037557;28;20049;-83
2021/08/16 13:35:32;;;;;;;12.15;9.77;;;;;;;;;;5035630;28;20054;-82
2021/08/16 13:37:59;;;;;;;9.25;8.27;;;;;;;;;;5037115;28;20049;-82
2021/08/16 13:40:29;;;;;;;9.95;8.43;;;;;;;;;;5035048;28;20085;-89
2021/08/16 13:42:59;;;;;;;10.65;9.30;;;;;;;;;;5036762;28;20041;-81
2021/08/16 13:45:29;;;;;;;8.50;7.47;;;;;;;;;;5056777;28;20067;-82
2021/08/16 13:47:56;;;;;;;8.77;7.82;;;;;;;;;;5055119;28;20072;-83
2021/08/16 13:50:24;;;;;;;8.80;7.90;;;;;;;;;;5057287;28;20760;-84
2021/08/16 13:52:51;;;;;;;10.55;8.65;;;;;;;;;;5054559;28;20569;-82
2021/08/16 13:58:00;;;;;;;7.80;6.88;;;;;;;;;;5056690;28;20049;-84
2021/08/16 14:03:34;;;;;;;12.95;10.07;;;;;;;;;;4992752;28;20050;-84
2021/08/16 14:06:10;;;;;;;9.43;7.68;;;;;;;;;;4993385;28;20058;-83
2021/08/16 14:08:48;;;;;;;11.43;9.65;;;;;;;;;;4994069;28;20049;-83
2021/08/16 14:11:32;;;;;;;10.90;9.23;;;;;;;;;;4993251;28;20647;-84
2021/08/16 14:13:59;;;;;;;12.20;9.80;;;;;;;;;;4999102;28;20511;-85
2021/08/16 14:16:40;;;;;;;9.27;8.27;;;;;;;;;;5028382;28;20091;-81
2021/08/16 14:22:12;;;;;;;10.48;8.65;;;;;;;;;;5039083;28;20042;-83
2021/08/16 14:27:33;;;;;;;8.20;6.97;;;;;;;;;;4978434;28;20047;-85
2021/08/16 14:34:24;;;;;;;8.85;5.85;;;;;;;;;;4939855;29;20138;-83
2021/08/16 14:37:45;;;;;;;6.38;5.50;;;;;;;;;;4847869;29;20055;-83
2021/08/16 14:40:35;;;;;;;;;;;;;;;;;;4941281;29;20555;-83
2021/08/16 14:51:01;;;;;;;7.00;5.53;;;;;;;;;;4964587;28;20058;-83
2021/08/16 14:54:23;;;;;;;7.60;6.28;;;;;;;;;;5024678;28;20047;-82
2021/08/16 14:57:08;;;;;;;7.10;5.80;;;;;;;;;;5017873;28;20109;-83
2021/08/16 15:03:33;;;;;;;9.35;6.30;;;;;;;;;;4988316;28;20543;-83
2021/08/16 15:06:55;;;;;;;6.93;5.80;;;;;;;;;;5007081;28;20074;-84
2021/08/16 15:10:01;;;;;;;8.82;6.38;;;;;;;;;;5019672;28;20034;-83
2021/08/16 15:12:34;;;;;;;7.50;5.80;;;;;;;;;;5041020;28;20041;-83
2021/08/16 15:15:10;;;;;;;7.88;5.72;;;;;;;;;;5079840;28;20033;-84
2021/08/16 15:17:44;;;;;;;6.68;5.18;;;;;;;;;;5078967;28;20079;-83
2021/08/16 15:20:56;;;;;;;8.43;5.38;;;;;;;;;;5079299;28;20033;-82
2021/08/16 15:23:56;;;;;;;;;;;;;;;;;;;;;
2021/08/16 15:27:03;;;;;;;7.57;6.43;;;;;;;;;;5026003;28;20061;-83
2021/08/16 15:35:20;;;;;;;7.72;5.72;;;;;;;;;;5201022;22;20077;-83
2021/08/16 15:40:48;;;;;;;7.60;6.22;;;;;;;;;;5134363;28;20042;-83
2021/08/16 15:43:19;;;;;;;9.77;5.90;;;;;;;;;;5139133;27;20045;-82
2021/08/16 15:48:34;;;;;;;8.10;5.70;;;;;;;;;;5110466;27;20035;-84
2021/08/16 15:51:01;;;;;;;7.97;6.72;;;;;;;;;;5133142;28;20044;-83
2021/08/16 15:53:29;;;;;;;8.02;6.35;;;;;;;;;;5119558;28;20488;-82
2021/08/16 15:55:56;;;;;;;10.27;6.85;;;;;;;;;;5123846;28;20056;-82
2021/08/16 15:58:24;;;;;;;7.57;5.88;;;;;;;;;;5130737;28;20039;-82
2021/08/16 16:00:52;;;;;;;8.32;6.03;;;;;;;;;;5129171;28;20047;-83
2021/08/16 16:03:19;;;;;;;9.77;6.47;;;;;;;;;;5132330;22;20100;-83
2021/08/16 16:05:46;;;;;;;7.40;5.80;;;;;;;;;;5101120;28;20058;-82
2021/08/16 16:08:13;;;;;;;6.70;5.22;;;;;;;;;;5102619;28;20074;-83
2021/08/16 16:10:41;;;;;;;6.93;5.15;;;;;;;;;;5102909;28;20085;-82
2021/08/16 16:13:08;;;;;;;10.38;7.38;;;;;;;;;;5102481;28;20076;-81
2021/08/16 16:15:39;;;;;;;8.38;6.47;;;;;;;;;;5101768;28;20085;-82
2021/08/16 16:18:06;;;;;;;8.13;5.80;;;;;;;;;;5101180;28;20070;-82
2021/08/16 16:20:33;;;;;;;9.23;7.25;;;;;;;;;;5102035;28;20097;-81
2021/08/16 16:23:00;;;;;;;8.65;6.60;;;;;;;;;;5100095;28;20519;-82
2021/08/16 16:25:27;;;;;;;6.78;5.60;;;;;;;;;;5099085;28;20052;-83
2021/08/16 16:27:54;;;;;;;7.63;5.68;;;;;;;;;;5100523;28;20474;-84
2021/08/16 16:30:31;;;;;;;7.55;5.95;;;;;;;;;;5100212;28;20124;-89
2021/08/16 16:33:00;;;;;;;7.20;4.82;;;;;;;;;;5096976;28;20048;-85
2021/08/16 16:35:27;;;;;;;8.30;4.53;;;;;;;;;;5098193;28;20052;-85
2021/08/16 16:37:54;;;;;;;7.35;4.38;;;;;;;;;;5100408;28;20040;-83
2021/08/16 16:40:27;;;;;;;5.72;4.35;;;;;;;;;;5105154;28;20051;-86
2021/08/16 16:42:54;;;;;;;6.50;4.43;;;;;;;;;;5102751;28;20404;-82
2021/08/16 16:45:35;;;;;;;5.35;4.10;;;;;;;;;;5102204;28;20075;-87
2021/08/16 16:48:05;;;;;;;5.75;4.07;;;;;;;;;;5101832;28;20044;-80
2021/08/16 16:50:35;;;;;;;5.90;4.32;;;;;;;;;;5101754;28;20573;-86
2021/08/16 16:53:02;;;;;;;5.53;4.03;;;;;;;;;;5101817;28;20048;-80
2021/08/16 16:55:29;;;;;;;5.68;4.38;;;;;;;;;;5102902;28;20377;-82
2021/08/16 16:58:00;;;;;;;6.15;3.67;;;;;;;;;;5103720;28;20105;-81
2021/08/16 17:00:26;;;;;;;6.03;4.10;;;;;;;;;;5104747;28;20461;-82
2021/08/16 17:02:53;;;;;;;6.35;3.70;;;;;;;;;;5109238;28;20058;-79
2021/08/16 17:05:21;;;;;;;6.85;4.70;;;;;;;;;;5110371;28;20109;-82
2021/08/16 17:07:57;;;;;;;4.88;3.03;;;;;;;;;;5105145;28;20044;-84
2021/08/16 17:10:24;;;;;;;6.10;3.50;;;;;;;;;;5101710;28;20096;-80
2021/08/16 17:12:51;;;;;;;5.32;3.80;;;;;;;;;;5093441;28;20048;-81
2021/08/16 17:15:18;;;;;;;4.78;2.90;;;;;;;;;;5079570;28;20048;-81
2021/08/16 17:17:44;;;;;;;3.78;2.42;;;;;;;;;;5079488;28;20071;-80
2021/08/16 17:20:12;;;;;;;5.00;3.20;;;;;;;;;;5080671;28;20603;-82
2021/08/16 17:22:40;;;;;;;3.70;2.47;;;;;;;;;;5080190;28;20048;-82
2021/08/16 17:25:09;;;;;;;4.00;2.53;;;;;;;;;;5079431;28;20056;-82
2021/08/16 17:27:36;;;;;;;4.35;2.33;;;;;;;;;;5080518;28;20037;-83
2021/08/16 17:30:04;;;;;;;4.40;2.67;;;;;;;;;;5081095;28;20044;-83
2021/08/16 17:32:31;;;;;;;3.72;2.20;;;;;;;;;;5080474;28;20047;-83
2021/08/16 17:34:58;;;;;;;4.00;2.60;;;;;;;;;;5081084;28;20091;-81
2021/08/16 17:37:25;;;;;;;3.80;1.90;;;;;;;;;;5082226;28;20040;-81
2021/08/16 17:39:53;;;;;;;2.78;1.55;;;;;;;;;;5082000;28;20086;-82
2021/08/16 17:42:20;;;;;;;3.67;2.13;;;;;;;;;;5082965;28;20045;-81
2021/08/16 17:44:47;;;;;;;4.13;2.05;;;;;;;;;;5085000;28;20150;-81
2021/08/16 17:47:39;;;;;;;4.43;2.03;;;;;;;;;;5089297;28;20049;-87
2021/08/16 17:50:10;;;;;;;3.85;2.10;;;;;;;;;;5068528;28;20048;-88
2021/08/16 17:52:37;;;;;;;4.50;2.38;;;;;;;;;;5078016;28;20053;-84
2021/08/16 17:55:06;;;;;;;3.85;2.22;;;;;;;;;;5090784;28;20058;-82
2021/08/16 17:57:35;;;;;;;4.10;2.47;;;;;;;;;;5106636;28;20052;-83
2021/08/16 18:00:34;;;;;;;5.28;2.60;;;;;;;;;;5100041;28;20131;-90
2021/08/16 18:03:04;;;;;;;4.22;2.30;;;;;;;;;;5080226;28;20405;-86
2021/08/16 18:05:32;;;;;;;6.07;3.23;;;;;;;;;;5074990;28;20048;-87
2021/08/16 18:07:59;;;;;;;4.15;2.30;;;;;;;;;;5073850;28;20048;-81
2021/08/16 18:10:27;;;;;;;4.13;2.38;;;;;;;;;;5074915;28;20045;-86
2021/08/16 18:12:54;;;;;;;5.03;2.67;;;;;;;;;;5074795;28;20512;-84
2021/08/16 18:15:20;;;;;;;4.10;2.67;;;;;;;;;;5074426;28;20048;-81
2021/08/16 18:17:47;;;;;;;5.63;3.22;;;;;;;;;;5074432;28;20098;-84
2021/08/16 18:20:16;;;;;;;5.28;2.33;;;;;;;;;;5075775;28;20120;-85
2021/08/16 18:22:45;;;;;;;4.45;2.45;;;;;;;;;;5076709;28;20044;-85
2021/08/16 18:25:14;;;;;;;5.07;2.70;;;;;;;;;;5074108;28;20535;-86
2021/08/16 18:27:42;;;;;;;4.78;2.60;;;;;;;;;;5076149;28;20044;-83
2021/08/16 18:30:10;;;;;;;6.80;3.65;;;;;;;;;;5076034;28;20097;-83
2021/08/16 18:32:39;;;;;;;4.53;3.05;;;;;;;;;;5074690;28;20119;-83
2021/08/16 18:35:07;;;;;;;6.30;2.95;;;;;;;;;;5079167;28;20052;-83
2021/08/16 18:37:34;;;;;;;6.53;2.90;;;;;;;;;;5077253;28;20702;-82
2021/08/16 18:40:11;;;;;;;3.80;2.15;;;;;;;;;;5077332;28;20045;-88
2021/08/16 18:42:39;;;;;;;5.22;2.88;;;;;;;;;;5082359;28;20044;-82
2021/08/16 18:45:09;;;;;;;5.40;2.70;;;;;;;;;;5089177;28;20040;-84
2021/08/16 18:47:38;;;;;;;5.85;2.30;;;;;;;;;;5102091;28;20119;-82
2021/08/16 18:50:05;;;;;;;4.82;2.60;;;;;;;;;;5099522;28;20074;-80
2021/08/16 18:52:32;;;;;;;7.28;2.95;;;;;;;;;;5100703;28;20048;-81
2021/08/16 18:54:59;;;;;;;6.43;3.78;;;;;;;;;;5101708;28;20105;-80
2021/08/16 18:57:26;;;;;;;6.57;3.08;;;;;;;;;;5090549;28;20071;-83
2021/08/16 18:59:53;;;;;;;4.95;2.50;;;;;;;;;;5082517;28;20047;-80
2021/08/16 19:02:21;;;;;;;7.80;3.70;;;;;;;;;;5069003;28;20041;-79
2021/08/16 19:04:47;;;;;;;5.88;3.13;;;;;;;;;;5061229;28;20049;-83
2021/08/16 19:07:14;;;;;;;5.88;3.00;;;;;;;;;;5063041;28;20170;-82
2021/08/16 19:09:41;;;;;;;5.13;2.28;;;;;;;;;;5062779;28;20167;-82
2021/08/16 19:12:10;;;;;;;5.78;2.85;;;;;;;;;;5073081;28;20044;-81
2021/08/16 19:14:37;;;;;;;3.70;2.37;;;;;;;;;;5107626;28;20202;-80
2021/08/16 19:17:04;;;;;;;5.07;2.35;;;;;;;;;;5104612;28;20070;-80
2021/08/16 19:19:33;;;;;;;3.55;2.20;;;;;;;;;;5106941;28;20055;-80
2021/08/16 19:22:01;;;;;;;4.57;2.10;;;;;;;;;;5106295;28;20536;-81
2021/08/16 19:24:28;;;;;;;11.63;2.80;;;;;;;;;;5107633;28;20052;-81
2021/08/16 19:26:55;;;;;;;5.50;2.60;;;;;;;;;;5091292;28;20041;-80
2021/08/16 19:29:22;;;;;;;5.45;2.60;;;;;;;;;;5084628;28;20041;-84
2021/08/16 19:31:48;;;;;;;4.70;2.65;;;;;;;;;;5085078;28;20079;-81
2021/08/16 19:34:15;;;;;;;4.07;2.47;;;;;;;;;;5085700;28;20071;-81
2021/08/16 19:36:43;;;;;;;5.68;2.38;;;;;;;;;;5082273;28;20207;-81
2021/08/16 19:39:14;;;;;;;5.25;2.40;;;;;;;;;;5084109;28;20074;-81
2021/08/16 19:41:41;;;;;;;4.45;2.17;;;;;;;;;;5084341;28;20048;-81
2021/08/16 19:44:09;;;;;;;4.78;2.30;;;;;;;;;;5083629;28;20716;-83
2021/08/16 19:46:43;;;;;;;4.63;2.45;;;;;;;;;;5081508;28;20051;-86
2021/08/16 19:49:10;;;;;;;5.72;2.33;;;;;;;;;;5066737;28;20048;-82
2021/08/16 19:51:37;;;;;;;4.05;1.90;;;;;;;;;;5086367;28;20569;-81
2021/08/16 19:54:06;;;;;;;4.22;1.90;;;;;;;;;;5085692;28;20044;-82
2021/08/16 19:56:33;;;;;;;5.32;2.08;;;;;;;;;;5085445;28;20074;-82
2021/08/16 19:59:00;;;;;;;5.32;2.35;;;;;;;;;;5086890;28;20055;-81
2021/08/16 20:01:28;;;;;;;5.03;1.80;;;;;;;;;;5085615;28;20048;-81
2021/08/16 20:03:56;;;;;;;4.20;1.65;;;;;;;;;;5085668;28;20036;-81
2021/08/16 20:06:23;;;;;;;4.03;2.00;;;;;;;;;;5086611;28;20045;-82
2021/08/16 20:08:50;;;;;;;5.93;2.35;;;;;;;;;;5085916;28;20040;-81
2021/08/16 20:11:20;;;;;;;4.85;2.10;;;;;;;;;;5085935;28;20049;-81
2021/08/16 20:13:48;;;;;;;4.60;2.13;;;;;;;;;;5081471;28;20051;-83
2021/08/16 20:16:18;;;;;;;5.38;1.98;;;;;;;;;;5079473;28;20044;-85
2021/08/16 20:18:57;;;;;;;4.22;2.10;;;;;;;;;;5082417;28;20068;-87
2021/08/16 20:21:24;;;;;;;4.88;2.22;;;;;;;;;;5106924;28;20078;-86
2021/08/16 20:23:50;;;;;;;4.70;2.08;;;;;;;;;;5106753;28;20048;-83
2021/08/16 20:26:18;;;;;;;4.18;2.20;;;;;;;;;;5103823;28;20043;-84
2021/08/16 20:28:45;;;;;;;4.80;1.98;;;;;;;;;;5100574;28;20082;-84
2021/08/16 20:31:14;;;;;;;3.47;2.00;;;;;;;;;;5100840;28;20585;-84
2021/08/16 20:33:41;;;;;;;5.72;2.95;;;;;;;;;;5104575;28;20048;-82
2021/08/16 20:36:07;;;;;;;5.20;2.67;;;;;;;;;;5103765;28;20052;-83
2021/08/16 20:38:35;;;;;;;6.28;2.15;;;;;;;;;;5104677;28;20101;-83
2021/08/16 20:41:02;;;;;;;3.60;1.75;;;;;;;;;;5103940;28;20449;-81
2021/08/16 20:43:31;;;;;;;3.70;2.00;;;;;;;;;;5103561;28;20437;-81
2021/08/16 20:45:58;;;;;;;4.63;2.88;;;;;;;;;;5103748;28;20066;-82
2021/08/16 20:48:25;;;;;;;4.78;3.00;;;;;;;;;;5102792;28;20048;-82
2021/08/16 20:50:52;;;;;;;5.05;1.85;;;;;;;;;;5102842;28;20429;-83
2021/08/16 20:53:18;;;;;;;5.45;2.30;;;;;;;;;;5103887;28;20048;-82
2021/08/16 20:55:46;;;;;;;5.03;2.83;;;;;;;;;;5108969;28;20048;-81
2021/08/16 20:58:13;;;;;;;4.75;2.10;;;;;;;;;;5112461;28;20024;-81
2021/08/16 21:00:43;;;;;;;3.95;2.20;;;;;;;;;;5111633;28;20144;-82
2021/08/16 21:03:10;;;;;;;4.40;1.77;;;;;;;;;;5080920;28;20049;-81
2021/08/16 21:05:38;;;;;;;4.38;1.88;;;;;;;;;;5076024;28;20044;-82
2021/08/16 21:08:05;;;;;;;4.70;1.98;;;;;;;;;;5075356;28;20041;-82
2021/08/16 21:10:33;;;;;;;3.50;1.50;;;;;;;;;;5076997;28;20105;-83
2021/08/16 21:13:00;;;;;;;5.30;3.00;;;;;;;;;;5075075;28;20087;-83
2021/08/16 21:15:27;;;;;;;4.47;2.47;;;;;;;;;;5077063;28;20044;-83
2021/08/16 21:17:55;;;;;;;7.50;3.38;;;;;;;;;;5079778;28;20052;-83
2021/08/16 21:20:23;;;;;;;4.45;2.00;;;;;;;;;;5077650;28;20059;-81
2021/08/16 21:22:52;;;;;;;4.53;1.85;;;;;;;;;;5077616;28;20493;-83
2021/08/16 21:25:18;;;;;;;4.72;1.85;;;;;;;;;;5076727;28;20087;-84
2021/08/16 21:27:45;;;;;;;3.85;1.75;;;;;;;;;;5076271;28;20049;-83
2021/08/16 21:30:13;;;;;;;3.90;1.77;;;;;;;;;;5077271;28;20102;-81
2021/08/16 21:32:40;;;;;;;3.85;1.70;;;;;;;;;;5077204;28;20056;-82
2021/08/16 21:35:09;;;;;;;3.88;1.88;;;;;;;;;;5076340;28;20710;-83
2021/08/16 21:37:36;;;;;;;4.88;2.15;;;;;;;;;;5077236;28;20048;-82
2021/08/16 21:40:03;;;;;;;3.72;1.58;;;;;;;;;;5076762;28;20092;-82
2021/08/16 21:42:31;;;;;;;4.10;1.75;;;;;;;;;;5077036;28;20076;-83
2021/08/16 21:44:58;;;;;;;4.65;1.77;;;;;;;;;;5077167;28;20094;-83
2021/08/16 21:47:24;;;;;;;3.75;1.70;;;;;;;;;;5078611;28;20044;-82
2021/08/16 21:49:51;;;;;;;4.00;1.75;;;;;;;;;;5077944;28;20048;-84
2021/08/16 21:52:19;;;;;;;4.47;1.42;;;;;;;;;;5077918;28;20456;-82
2021/08/16 21:54:46;;;;;;;3.78;1.40;;;;;;;;;;5078032;28;20102;-86
2021/08/16 21:57:13;;;;;;;3.20;1.48;;;;;;;;;;5076975;28;20106;-82
2021/08/16 21:59:40;;;;;;;5.35;1.77;;;;;;;;;;5077706;28;20108;-85
2021/08/16 22:02:07;;;;;;;3.33;1.63;;;;;;;;;;5077407;28;20071;-83
2021/08/16 22:04:34;;;;;;;4.05;1.90;;;;;;;;;;5078750;28;20052;-82
2021/08/16 22:07:03;;;;;;;3.47;1.52;;;;;;;;;;5079846;28;20041;-82